sensor_id;sensor_type;location;lat;lon;timestamp;P1;durP1;ratioP1;P2;durP2;ratioP2
65665;SDS011;52365;47.464;18.976;2022-11-11T00:00:29;10.65;;;6.57;;
65665;SDS011;52365;47.464;18.976;2022-11-11T00:01:11;10.90;;;6.65;;
65665;SDS011;52365;47.464;18.976;2022-11-11T00:01:48;11.20;;;6.60;;
65665;SDS011;52365;47.464;18.976;2022-11-11T00:02:24;10.45;;;6.37;;
65665;SDS011;52365;47.464;18.976;2022-11-11T00:03:01;10.32;;;6.28;;
65665;SDS011;52365;47.464;18.976;2022-11-11T00:03:37;10.50;;;6.07;;
65665;SDS011;52365;47.464;18.976;2022-11-11T00:04:13;12.10;;;6.60;;
65665;SDS011;52365;47.464;18.976;2022-11-11T00:04:49;10.90;;;6.20;;
65665;SDS011;52365;47.464;18.976;2022-11-11T00:05:25;11.73;;;6.18;;
65665;SDS011;52365;47.464;18.976;2022-11-11T00:06:03;11.32;;;6.28;;
65665;SDS011;52365;47.464;18.976;2022-11-11T00:06:41;11.27;;;6.18;;
65665;SDS011;52365;47.464;18.976;2022-11-11T00:07:17;11.12;;;6.32;;
65665;SDS011;52365;47.464;18.976;2022-11-11T00:07:54;11.50;;;6.25;;
65665;SDS011;52365;47.464;18.976;2022-11-11T00:08:36;11.60;;;6.45;;
65665;SDS011;52365;47.464;18.976;2022-11-11T00:09:13;9.57;;;5.68;;
65665;SDS011;52365;47.464;18.976;2022-11-11T00:09:49;11.90;;;6.15;;
65665;SDS011;52365;47.464;18.976;2022-11-11T00:10:28;9.63;;;5.40;;
65665;SDS011;52365;47.464;18.976;2022-11-11T00:11:06;10.77;;;5.60;;
65665;SDS011;52365;47.464;18.976;2022-11-11T00:11:44;9.30;;;5.68;;
65665;SDS011;52365;47.464;18.976;2022-11-11T00:12:20;9.25;;;5.50;;
65665;SDS011;52365;47.464;18.976;2022-11-11T00:12:59;10.45;;;5.50;;
65665;SDS011;52365;47.464;18.976;2022-11-11T00:13:36;11.40;;;5.53;;
65665;SDS011;52365;47.464;18.976;2022-11-11T00:14:12;10.48;;;5.75;;
65665;SDS011;52365;47.464;18.976;2022-11-11T00:14:48;11.93;;;5.70;;
65665;SDS011;52365;47.464;18.976;2022-11-11T00:15:25;11.52;;;5.60;;
65665;SDS011;52365;47.464;18.976;2022-11-11T00:16:48;10.35;;;5.25;;
65665;SDS011;52365;47.464;18.976;2022-11-11T00:17:42;9.45;;;5.50;;
65665;SDS011;52365;47.464;18.976;2022-11-11T00:18:37;8.40;;;4.70;;
65665;SDS011;52365;47.464;18.976;2022-11-11T00:19:33;8.65;;;4.95;;
65665;SDS011;52365;47.464;18.976;2022-11-11T00:20:41;9.77;;;4.70;;
65665;SDS011;52365;47.464;18.976;2022-11-11T00:21:36;10.65;;;4.90;;
65665;SDS011;52365;47.464;18.976;2022-11-11T00:22:31;9.60;;;4.97;;
65665;SDS011;52365;47.464;18.976;2022-11-11T00:23:27;10.88;;;5.10;;
65665;SDS011;52365;47.464;18.976;2022-11-11T00:24:26;9.02;;;4.78;;
65665;SDS011;52365;47.464;18.976;2022-11-11T00:25:22;8.55;;;4.65;;
65665;SDS011;52365;47.464;18.976;2022-11-11T00:25:58;10.40;;;4.70;;
65665;SDS011;52365;47.464;18.976;2022-11-11T00:26:36;9.65;;;4.68;;
65665;SDS011;52365;47.464;18.976;2022-11-11T00:27:12;9.05;;;4.30;;
65665;SDS011;52365;47.464;18.976;2022-11-11T00:27:49;8.32;;;4.35;;
65665;SDS011;52365;47.464;18.976;2022-11-11T00:28:25;7.85;;;4.45;;
65665;SDS011;52365;47.464;18.976;2022-11-11T00:29:01;7.62;;;4.53;;
65665;SDS011;52365;47.464;18.976;2022-11-11T00:29:37;10.07;;;4.35;;
65665;SDS011;52365;47.464;18.976;2022-11-11T00:30:14;9.85;;;4.85;;
65665;SDS011;52365;47.464;18.976;2022-11-11T00:30:50;10.15;;;5.10;;
65665;SDS011;52365;47.464;18.976;2022-11-11T00:31:26;7.50;;;4.93;;
65665;SDS011;52365;47.464;18.976;2022-11-11T00:32:02;11.38;;;6.18;;
65665;SDS011;52365;47.464;18.976;2022-11-11T00:32:57;14.70;;;8.68;;
65665;SDS011;52365;47.464;18.976;2022-11-11T00:33:33;14.15;;;8.25;;
65665;SDS011;52365;47.464;18.976;2022-11-11T00:34:09;15.10;;;8.38;;
65665;SDS011;52365;47.464;18.976;2022-11-11T00:34:45;14.20;;;8.98;;
65665;SDS011;52365;47.464;18.976;2022-11-11T00:35:41;14.00;;;9.55;;
65665;SDS011;52365;47.464;18.976;2022-11-11T00:36:29;14.82;;;9.50;;
65665;SDS011;52365;47.464;18.976;2022-11-11T00:37:05;15.05;;;9.20;;
65665;SDS011;52365;47.464;18.976;2022-11-11T00:37:42;14.90;;;9.45;;
65665;SDS011;52365;47.464;18.976;2022-11-11T00:38:20;15.27;;;10.18;;
65665;SDS011;52365;47.464;18.976;2022-11-11T00:39:15;15.55;;;10.00;;
65665;SDS011;52365;47.464;18.976;2022-11-11T00:39:51;15.27;;;10.07;;
65665;SDS011;52365;47.464;18.976;2022-11-11T00:40:27;15.95;;;10.27;;
65665;SDS011;52365;47.464;18.976;2022-11-11T00:41:03;16.58;;;10.20;;
65665;SDS011;52365;47.464;18.976;2022-11-11T00:41:39;15.25;;;10.27;;
65665;SDS011;52365;47.464;18.976;2022-11-11T00:42:15;16.10;;;9.90;;
65665;SDS011;52365;47.464;18.976;2022-11-11T00:42:51;15.88;;;9.73;;
65665;SDS011;52365;47.464;18.976;2022-11-11T00:43:27;14.87;;;9.25;;
65665;SDS011;52365;47.464;18.976;2022-11-11T00:44:03;14.80;;;9.35;;
65665;SDS011;52365;47.464;18.976;2022-11-11T00:44:40;15.57;;;8.98;;
65665;SDS011;52365;47.464;18.976;2022-11-11T00:45:16;16.42;;;9.52;;
65665;SDS011;52365;47.464;18.976;2022-11-11T00:45:52;17.80;;;9.82;;
65665;SDS011;52365;47.464;18.976;2022-11-11T00:46:28;13.50;;;8.32;;
65665;SDS011;52365;47.464;18.976;2022-11-11T00:47:22;13.02;;;7.90;;
65665;SDS011;52365;47.464;18.976;2022-11-11T00:48:17;15.00;;;9.43;;
65665;SDS011;52365;47.464;18.976;2022-11-11T00:49:11;14.15;;;8.80;;
65665;SDS011;52365;47.464;18.976;2022-11-11T00:50:24;12.45;;;6.70;;
65665;SDS011;52365;47.464;18.976;2022-11-11T00:51:21;12.93;;;6.70;;
65665;SDS011;52365;47.464;18.976;2022-11-11T00:51:57;9.65;;;5.70;;
65665;SDS011;52365;47.464;18.976;2022-11-11T00:52:33;11.12;;;6.30;;
65665;SDS011;52365;47.464;18.976;2022-11-11T00:53:13;11.43;;;6.65;;
65665;SDS011;52365;47.464;18.976;2022-11-11T00:53:51;11.82;;;7.03;;
65665;SDS011;52365;47.464;18.976;2022-11-11T00:54:27;10.45;;;6.70;;
65665;SDS011;52365;47.464;18.976;2022-11-11T00:55:03;10.15;;;5.65;;
65665;SDS011;52365;47.464;18.976;2022-11-11T00:55:40;11.35;;;6.18;;
65665;SDS011;52365;47.464;18.976;2022-11-11T00:56:16;11.00;;;5.70;;
65665;SDS011;52365;47.464;18.976;2022-11-11T00:56:52;10.25;;;6.10;;
65665;SDS011;52365;47.464;18.976;2022-11-11T00:57:28;10.63;;;5.70;;
65665;SDS011;52365;47.464;18.976;2022-11-11T00:58:04;11.98;;;5.82;;
65665;SDS011;52365;47.464;18.976;2022-11-11T00:58:40;10.65;;;5.62;;
65665;SDS011;52365;47.464;18.976;2022-11-11T00:59:16;11.82;;;5.65;;
65665;SDS011;52365;47.464;18.976;2022-11-11T00:59:52;9.18;;;5.35;;
65665;SDS011;52365;47.464;18.976;2022-11-11T01:00:28;9.27;;;5.45;;
65665;SDS011;52365;47.464;18.976;2022-11-11T01:01:05;9.88;;;5.40;;
65665;SDS011;52365;47.464;18.976;2022-11-11T01:01:41;11.25;;;5.30;;
65665;SDS011;52365;47.464;18.976;2022-11-11T01:02:17;10.35;;;5.62;;
65665;SDS011;52365;47.464;18.976;2022-11-11T01:02:53;10.25;;;5.57;;
65665;SDS011;52365;47.464;18.976;2022-11-11T01:03:29;10.35;;;5.25;;
65665;SDS011;52365;47.464;18.976;2022-11-11T01:04:05;10.32;;;5.62;;
65665;SDS011;52365;47.464;18.976;2022-11-11T01:04:41;9.30;;;5.47;;
65665;SDS011;52365;47.464;18.976;2022-11-11T01:05:17;10.88;;;5.47;;
65665;SDS011;52365;47.464;18.976;2022-11-11T01:05:53;10.55;;;5.53;;
65665;SDS011;52365;47.464;18.976;2022-11-11T01:06:34;11.23;;;5.78;;
65665;SDS011;52365;47.464;18.976;2022-11-11T01:07:11;10.18;;;5.65;;
65665;SDS011;52365;47.464;18.976;2022-11-11T01:07:48;11.20;;;5.70;;
65665;SDS011;52365;47.464;18.976;2022-11-11T01:08:25;11.30;;;5.87;;
65665;SDS011;52365;47.464;18.976;2022-11-11T01:09:04;10.13;;;5.90;;
65665;SDS011;52365;47.464;18.976;2022-11-11T01:09:41;11.73;;;5.70;;
65665;SDS011;52365;47.464;18.976;2022-11-11T01:10:17;12.25;;;6.18;;
65665;SDS011;52365;47.464;18.976;2022-11-11T01:11:13;10.82;;;5.87;;
65665;SDS011;52365;47.464;18.976;2022-11-11T01:11:51;10.60;;;6.00;;
65665;SDS011;52365;47.464;18.976;2022-11-11T01:12:27;9.15;;;5.50;;
65665;SDS011;52365;47.464;18.976;2022-11-11T01:13:45;9.80;;;5.28;;
65665;SDS011;52365;47.464;18.976;2022-11-11T01:14:03;12.68;;;5.57;;
65665;SDS011;52365;47.464;18.976;2022-11-11T01:14:39;11.80;;;5.78;;
65665;SDS011;52365;47.464;18.976;2022-11-11T01:15:16;11.18;;;5.72;;
65665;SDS011;52365;47.464;18.976;2022-11-11T01:15:56;10.65;;;5.57;;
65665;SDS011;52365;47.464;18.976;2022-11-11T01:16:33;10.18;;;5.37;;
65665;SDS011;52365;47.464;18.976;2022-11-11T01:17:09;10.63;;;5.25;;
65665;SDS011;52365;47.464;18.976;2022-11-11T01:17:46;11.88;;;5.10;;
65665;SDS011;52365;47.464;18.976;2022-11-11T01:18:23;11.18;;;5.30;;
65665;SDS011;52365;47.464;18.976;2022-11-11T01:19:01;16.17;;;8.77;;
65665;SDS011;52365;47.464;18.976;2022-11-11T01:19:37;18.92;;;10.57;;
65665;SDS011;52365;47.464;18.976;2022-11-11T01:20:13;17.90;;;10.13;;
65665;SDS011;52365;47.464;18.976;2022-11-11T01:21:03;18.03;;;10.80;;
65665;SDS011;52365;47.464;18.976;2022-11-11T01:21:41;16.85;;;11.18;;
65665;SDS011;52365;47.464;18.976;2022-11-11T01:22:17;17.87;;;11.18;;
65665;SDS011;52365;47.464;18.976;2022-11-11T01:22:53;18.87;;;11.12;;
65665;SDS011;52365;47.464;18.976;2022-11-11T01:23:29;19.23;;;11.48;;
65665;SDS011;52365;47.464;18.976;2022-11-11T01:24:06;18.25;;;10.80;;
65665;SDS011;52365;47.464;18.976;2022-11-11T01:24:42;20.27;;;11.75;;
65665;SDS011;52365;47.464;18.976;2022-11-11T01:25:20;17.17;;;10.57;;
65665;SDS011;52365;47.464;18.976;2022-11-11T01:26:03;20.23;;;11.68;;
65665;SDS011;52365;47.464;18.976;2022-11-11T01:26:46;19.75;;;11.27;;
65665;SDS011;52365;47.464;18.976;2022-11-11T01:27:22;17.35;;;11.38;;
65665;SDS011;52365;47.464;18.976;2022-11-11T01:27:58;18.05;;;10.85;;
65665;SDS011;52365;47.464;18.976;2022-11-11T01:28:34;17.02;;;10.50;;
65665;SDS011;52365;47.464;18.976;2022-11-11T01:29:10;18.50;;;11.52;;
65665;SDS011;52365;47.464;18.976;2022-11-11T01:29:46;17.08;;;11.12;;
65665;SDS011;52365;47.464;18.976;2022-11-11T01:30:22;16.20;;;10.55;;
65665;SDS011;52365;47.464;18.976;2022-11-11T01:31:02;18.02;;;11.23;;
65665;SDS011;52365;47.464;18.976;2022-11-11T01:31:39;18.90;;;11.27;;
65665;SDS011;52365;47.464;18.976;2022-11-11T01:32:15;17.52;;;10.80;;
65665;SDS011;52365;47.464;18.976;2022-11-11T01:32:51;16.27;;;10.55;;
65665;SDS011;52365;47.464;18.976;2022-11-11T01:33:27;17.10;;;10.60;;
65665;SDS011;52365;47.464;18.976;2022-11-11T01:34:03;18.55;;;11.05;;
65665;SDS011;52365;47.464;18.976;2022-11-11T01:34:39;17.37;;;10.65;;
65665;SDS011;52365;47.464;18.976;2022-11-11T01:35:15;18.15;;;11.07;;
65665;SDS011;52365;47.464;18.976;2022-11-11T01:35:51;19.25;;;11.10;;
65665;SDS011;52365;47.464;18.976;2022-11-11T01:36:27;16.17;;;10.43;;
65665;SDS011;52365;47.464;18.976;2022-11-11T01:37:04;16.67;;;10.77;;
65665;SDS011;52365;47.464;18.976;2022-11-11T01:37:40;16.35;;;10.90;;
65665;SDS011;52365;47.464;18.976;2022-11-11T01:38:16;16.55;;;10.40;;
65665;SDS011;52365;47.464;18.976;2022-11-11T01:38:53;16.15;;;10.73;;
65665;SDS011;52365;47.464;18.976;2022-11-11T01:39:31;16.45;;;10.60;;
65665;SDS011;52365;47.464;18.976;2022-11-11T01:40:08;18.52;;;11.10;;
65665;SDS011;52365;47.464;18.976;2022-11-11T01:40:45;18.40;;;11.98;;
65665;SDS011;52365;47.464;18.976;2022-11-11T01:41:27;18.62;;;11.15;;
65665;SDS011;52365;47.464;18.976;2022-11-11T01:42:07;17.95;;;12.15;;
65665;SDS011;52365;47.464;18.976;2022-11-11T01:43:26;17.87;;;11.68;;
65665;SDS011;52365;47.464;18.976;2022-11-11T01:44:47;20.85;;;12.43;;
65665;SDS011;52365;47.464;18.976;2022-11-11T01:46:29;17.10;;;11.65;;
65665;SDS011;52365;47.464;18.976;2022-11-11T01:47:06;19.05;;;11.90;;
65665;SDS011;52365;47.464;18.976;2022-11-11T01:47:42;19.33;;;12.57;;
65665;SDS011;52365;47.464;18.976;2022-11-11T01:48:41;16.95;;;12.05;;
65665;SDS011;52365;47.464;18.976;2022-11-11T01:50:33;18.25;;;12.35;;
65665;SDS011;52365;47.464;18.976;2022-11-11T01:51:29;19.65;;;12.02;;
65665;SDS011;52365;47.464;18.976;2022-11-11T01:52:23;18.60;;;12.40;;
65665;SDS011;52365;47.464;18.976;2022-11-11T01:53:09;18.80;;;12.45;;
65665;SDS011;52365;47.464;18.976;2022-11-11T01:53:50;20.88;;;13.02;;
65665;SDS011;52365;47.464;18.976;2022-11-11T01:54:42;20.75;;;13.02;;
65665;SDS011;52365;47.464;18.976;2022-11-11T01:55:25;21.75;;;13.10;;
65665;SDS011;52365;47.464;18.976;2022-11-11T01:56:02;21.83;;;13.35;;
65665;SDS011;52365;47.464;18.976;2022-11-11T01:56:39;20.55;;;13.48;;
65665;SDS011;52365;47.464;18.976;2022-11-11T01:58:06;19.98;;;13.45;;
65665;SDS011;52365;47.464;18.976;2022-11-11T01:58:45;21.10;;;13.85;;
65665;SDS011;52365;47.464;18.976;2022-11-11T01:59:22;19.48;;;12.70;;
65665;SDS011;52365;47.464;18.976;2022-11-11T02:00:06;19.52;;;13.02;;
65665;SDS011;52365;47.464;18.976;2022-11-11T02:00:45;21.20;;;13.10;;
65665;SDS011;52365;47.464;18.976;2022-11-11T02:01:21;20.75;;;13.00;;
65665;SDS011;52365;47.464;18.976;2022-11-11T02:01:57;21.75;;;13.32;;
65665;SDS011;52365;47.464;18.976;2022-11-11T02:03:24;21.62;;;13.25;;
65665;SDS011;52365;47.464;18.976;2022-11-11T02:04:03;19.02;;;12.27;;
65665;SDS011;52365;47.464;18.976;2022-11-11T02:05:00;19.60;;;12.90;;
65665;SDS011;52365;47.464;18.976;2022-11-11T02:05:57;18.52;;;12.50;;
65665;SDS011;52365;47.464;18.976;2022-11-11T02:06:34;21.83;;;13.10;;
65665;SDS011;52365;47.464;18.976;2022-11-11T02:07:11;19.13;;;12.67;;
65665;SDS011;52365;47.464;18.976;2022-11-11T02:07:47;22.40;;;13.07;;
65665;SDS011;52365;47.464;18.976;2022-11-11T02:08:25;18.58;;;13.07;;
65665;SDS011;52365;47.464;18.976;2022-11-11T02:09:07;20.40;;;12.68;;
65665;SDS011;52365;47.464;18.976;2022-11-11T02:09:44;20.70;;;12.52;;
65665;SDS011;52365;47.464;18.976;2022-11-11T02:10:23;19.33;;;12.57;;
65665;SDS011;52365;47.464;18.976;2022-11-11T02:11:42;20.00;;;12.57;;
65665;SDS011;52365;47.464;18.976;2022-11-11T02:12:38;20.15;;;12.73;;
65665;SDS011;52365;47.464;18.976;2022-11-11T02:13:32;19.75;;;12.35;;
65665;SDS011;52365;47.464;18.976;2022-11-11T02:14:32;17.37;;;12.50;;
65665;SDS011;52365;47.464;18.976;2022-11-11T02:15:17;19.37;;;12.48;;
65665;SDS011;52365;47.464;18.976;2022-11-11T02:15:53;20.27;;;12.55;;
65665;SDS011;52365;47.464;18.976;2022-11-11T02:16:29;22.23;;;12.68;;
65665;SDS011;52365;47.464;18.976;2022-11-11T02:17:07;17.80;;;12.10;;
65665;SDS011;52365;47.464;18.976;2022-11-11T02:17:46;19.75;;;12.55;;
65665;SDS011;52365;47.464;18.976;2022-11-11T02:18:24;18.10;;;11.63;;
65665;SDS011;52365;47.464;18.976;2022-11-11T02:19:01;17.67;;;12.23;;
65665;SDS011;52365;47.464;18.976;2022-11-11T02:19:41;18.45;;;12.30;;
65665;SDS011;52365;47.464;18.976;2022-11-11T02:20:25;18.58;;;12.35;;
65665;SDS011;52365;47.464;18.976;2022-11-11T02:21:03;19.45;;;12.60;;
65665;SDS011;52365;47.464;18.976;2022-11-11T02:21:51;19.12;;;12.23;;
65665;SDS011;52365;47.464;18.976;2022-11-11T02:22:48;19.83;;;12.43;;
65665;SDS011;52365;47.464;18.976;2022-11-11T02:23:27;19.58;;;12.13;;
65665;SDS011;52365;47.464;18.976;2022-11-11T02:24:10;17.77;;;12.25;;
65665;SDS011;52365;47.464;18.976;2022-11-11T02:24:51;19.05;;;12.75;;
65665;SDS011;52365;47.464;18.976;2022-11-11T02:25:30;18.77;;;12.32;;
65665;SDS011;52365;47.464;18.976;2022-11-11T02:26:07;17.55;;;11.88;;
65665;SDS011;52365;47.464;18.976;2022-11-11T02:26:46;19.60;;;12.70;;
65665;SDS011;52365;47.464;18.976;2022-11-11T02:27:23;20.67;;;12.82;;
65665;SDS011;52365;47.464;18.976;2022-11-11T02:28:02;20.50;;;12.10;;
65665;SDS011;52365;47.464;18.976;2022-11-11T02:28:41;20.02;;;12.80;;
65665;SDS011;52365;47.464;18.976;2022-11-11T02:29:18;19.73;;;12.80;;
65665;SDS011;52365;47.464;18.976;2022-11-11T02:29:57;20.65;;;12.98;;
65665;SDS011;52365;47.464;18.976;2022-11-11T02:30:35;18.42;;;12.50;;
65665;SDS011;52365;47.464;18.976;2022-11-11T02:31:11;19.52;;;12.98;;
65665;SDS011;52365;47.464;18.976;2022-11-11T02:31:48;20.42;;;12.25;;
65665;SDS011;52365;47.464;18.976;2022-11-11T02:32:24;19.30;;;12.55;;
65665;SDS011;52365;47.464;18.976;2022-11-11T02:33:00;19.23;;;12.70;;
65665;SDS011;52365;47.464;18.976;2022-11-11T02:33:36;19.33;;;12.00;;
65665;SDS011;52365;47.464;18.976;2022-11-11T02:34:12;18.87;;;12.20;;
65665;SDS011;52365;47.464;18.976;2022-11-11T02:34:48;18.73;;;12.63;;
65665;SDS011;52365;47.464;18.976;2022-11-11T02:35:47;19.17;;;13.15;;
65665;SDS011;52365;47.464;18.976;2022-11-11T02:36:30;19.58;;;13.25;;
65665;SDS011;52365;47.464;18.976;2022-11-11T02:37:07;18.62;;;12.25;;
65665;SDS011;52365;47.464;18.976;2022-11-11T02:37:45;17.83;;;12.75;;
65665;SDS011;52365;47.464;18.976;2022-11-11T02:38:24;20.42;;;12.77;;
65665;SDS011;52365;47.464;18.976;2022-11-11T02:39:00;20.23;;;12.43;;
65665;SDS011;52365;47.464;18.976;2022-11-11T02:39:38;18.30;;;12.52;;
65665;SDS011;52365;47.464;18.976;2022-11-11T02:40:30;20.37;;;12.93;;
65665;SDS011;52365;47.464;18.976;2022-11-11T02:41:09;18.70;;;12.65;;
65665;SDS011;52365;47.464;18.976;2022-11-11T02:42:04;17.77;;;12.18;;
65665;SDS011;52365;47.464;18.976;2022-11-11T02:42:44;18.87;;;12.25;;
65665;SDS011;52365;47.464;18.976;2022-11-11T02:43:20;18.05;;;12.48;;
65665;SDS011;52365;47.464;18.976;2022-11-11T02:43:56;20.52;;;12.23;;
65665;SDS011;52365;47.464;18.976;2022-11-11T02:44:32;18.52;;;12.52;;
65665;SDS011;52365;47.464;18.976;2022-11-11T02:45:08;20.17;;;12.82;;
65665;SDS011;52365;47.464;18.976;2022-11-11T02:45:45;18.73;;;12.30;;
65665;SDS011;52365;47.464;18.976;2022-11-11T02:46:21;18.48;;;12.37;;
65665;SDS011;52365;47.464;18.976;2022-11-11T02:46:57;18.92;;;13.02;;
65665;SDS011;52365;47.464;18.976;2022-11-11T02:47:33;21.95;;;14.02;;
65665;SDS011;52365;47.464;18.976;2022-11-11T02:48:09;21.33;;;14.20;;
65665;SDS011;52365;47.464;18.976;2022-11-11T02:48:45;21.35;;;14.02;;
65665;SDS011;52365;47.464;18.976;2022-11-11T02:49:21;22.85;;;14.05;;
65665;SDS011;52365;47.464;18.976;2022-11-11T02:49:57;20.55;;;13.85;;
65665;SDS011;52365;47.464;18.976;2022-11-11T02:50:33;22.58;;;14.43;;
65665;SDS011;52365;47.464;18.976;2022-11-11T02:51:09;21.75;;;13.93;;
65665;SDS011;52365;47.464;18.976;2022-11-11T02:51:45;20.52;;;13.77;;
65665;SDS011;52365;47.464;18.976;2022-11-11T02:52:22;21.87;;;13.85;;
65665;SDS011;52365;47.464;18.976;2022-11-11T02:52:58;23.00;;;13.38;;
65665;SDS011;52365;47.464;18.976;2022-11-11T02:53:34;19.52;;;12.63;;
65665;SDS011;52365;47.464;18.976;2022-11-11T02:54:10;20.55;;;13.07;;
65665;SDS011;52365;47.464;18.976;2022-11-11T02:54:46;19.17;;;12.63;;
65665;SDS011;52365;47.464;18.976;2022-11-11T02:55:23;20.45;;;13.55;;
65665;SDS011;52365;47.464;18.976;2022-11-11T02:55:59;20.33;;;12.98;;
65665;SDS011;52365;47.464;18.976;2022-11-11T02:56:35;22.60;;;13.75;;
65665;SDS011;52365;47.464;18.976;2022-11-11T02:57:44;19.75;;;12.15;;
65665;SDS011;52365;47.464;18.976;2022-11-11T02:58:20;19.50;;;12.77;;
65665;SDS011;52365;47.464;18.976;2022-11-11T02:58:56;19.08;;;12.48;;
65665;SDS011;52365;47.464;18.976;2022-11-11T02:59:32;22.17;;;14.10;;
65665;SDS011;52365;47.464;18.976;2022-11-11T03:00:10;20.37;;;13.62;;
65665;SDS011;52365;47.464;18.976;2022-11-11T03:00:46;18.35;;;13.18;;
65665;SDS011;52365;47.464;18.976;2022-11-11T03:01:22;21.00;;;13.90;;
65665;SDS011;52365;47.464;18.976;2022-11-11T03:01:59;21.60;;;13.70;;
65665;SDS011;52365;47.464;18.976;2022-11-11T03:02:35;20.52;;;14.00;;
65665;SDS011;52365;47.464;18.976;2022-11-11T03:03:11;21.05;;;14.02;;
65665;SDS011;52365;47.464;18.976;2022-11-11T03:03:47;20.52;;;13.10;;
65665;SDS011;52365;47.464;18.976;2022-11-11T03:04:23;18.65;;;12.25;;
65665;SDS011;52365;47.464;18.976;2022-11-11T03:04:59;19.12;;;12.45;;
65665;SDS011;52365;47.464;18.976;2022-11-11T03:05:35;20.35;;;12.43;;
65665;SDS011;52365;47.464;18.976;2022-11-11T03:06:11;21.48;;;13.02;;
65665;SDS011;52365;47.464;18.976;2022-11-11T03:06:47;20.45;;;13.27;;
65665;SDS011;52365;47.464;18.976;2022-11-11T03:07:24;22.17;;;13.32;;
65665;SDS011;52365;47.464;18.976;2022-11-11T03:08:00;19.23;;;12.73;;
65665;SDS011;52365;47.464;18.976;2022-11-11T03:08:37;19.70;;;12.88;;
65665;SDS011;52365;47.464;18.976;2022-11-11T03:09:13;19.45;;;13.32;;
65665;SDS011;52365;47.464;18.976;2022-11-11T03:09:49;22.55;;;14.02;;
65665;SDS011;52365;47.464;18.976;2022-11-11T03:10:25;21.17;;;13.73;;
65665;SDS011;52365;47.464;18.976;2022-11-11T03:11:01;20.45;;;13.68;;
65665;SDS011;52365;47.464;18.976;2022-11-11T03:11:37;19.10;;;12.63;;
65665;SDS011;52365;47.464;18.976;2022-11-11T03:12:14;20.90;;;12.70;;
65665;SDS011;52365;47.464;18.976;2022-11-11T03:12:50;20.42;;;12.77;;
65665;SDS011;52365;47.464;18.976;2022-11-11T03:13:26;19.25;;;12.82;;
65665;SDS011;52365;47.464;18.976;2022-11-11T03:14:03;18.95;;;12.77;;
65665;SDS011;52365;47.464;18.976;2022-11-11T03:14:39;18.23;;;12.65;;
65665;SDS011;52365;47.464;18.976;2022-11-11T03:15:15;18.98;;;12.52;;
65665;SDS011;52365;47.464;18.976;2022-11-11T03:15:51;20.42;;;12.50;;
65665;SDS011;52365;47.464;18.976;2022-11-11T03:16:27;20.80;;;13.23;;
65665;SDS011;52365;47.464;18.976;2022-11-11T03:17:22;19.70;;;13.20;;
65665;SDS011;52365;47.464;18.976;2022-11-11T03:18:16;18.85;;;12.35;;
65665;SDS011;52365;47.464;18.976;2022-11-11T03:18:52;19.40;;;13.02;;
65665;SDS011;52365;47.464;18.976;2022-11-11T03:19:28;20.23;;;13.07;;
65665;SDS011;52365;47.464;18.976;2022-11-11T03:20:05;18.37;;;12.80;;
65665;SDS011;52365;47.464;18.976;2022-11-11T03:21:04;20.60;;;13.20;;
65665;SDS011;52365;47.464;18.976;2022-11-11T03:21:40;19.35;;;12.52;;
65665;SDS011;52365;47.464;18.976;2022-11-11T03:22:16;18.45;;;12.60;;
65665;SDS011;52365;47.464;18.976;2022-11-11T03:23:06;20.60;;;13.45;;
65665;SDS011;52365;47.464;18.976;2022-11-11T03:23:47;22.52;;;13.70;;
65665;SDS011;52365;47.464;18.976;2022-11-11T03:24:23;21.48;;;14.13;;
65665;SDS011;52365;47.464;18.976;2022-11-11T03:24:59;20.92;;;13.32;;
65665;SDS011;52365;47.464;18.976;2022-11-11T03:25:54;20.67;;;13.13;;
65665;SDS011;52365;47.464;18.976;2022-11-11T03:26:30;18.12;;;12.60;;
65665;SDS011;52365;47.464;18.976;2022-11-11T03:27:06;21.55;;;13.15;;
65665;SDS011;52365;47.464;18.976;2022-11-11T03:27:42;20.80;;;13.57;;
65665;SDS011;52365;47.464;18.976;2022-11-11T03:28:19;20.50;;;13.55;;
65665;SDS011;52365;47.464;18.976;2022-11-11T03:28:56;22.90;;;14.52;;
65665;SDS011;52365;47.464;18.976;2022-11-11T03:29:32;22.10;;;13.52;;
65665;SDS011;52365;47.464;18.976;2022-11-11T03:30:08;21.83;;;14.25;;
65665;SDS011;52365;47.464;18.976;2022-11-11T03:30:45;23.62;;;14.85;;
65665;SDS011;52365;47.464;18.976;2022-11-11T03:31:22;23.25;;;13.75;;
65665;SDS011;52365;47.464;18.976;2022-11-11T03:31:58;22.25;;;14.10;;
65665;SDS011;52365;47.464;18.976;2022-11-11T03:32:35;20.83;;;13.07;;
65665;SDS011;52365;47.464;18.976;2022-11-11T03:33:11;19.92;;;13.62;;
65665;SDS011;52365;47.464;18.976;2022-11-11T03:33:47;22.58;;;14.65;;
65665;SDS011;52365;47.464;18.976;2022-11-11T03:34:24;20.95;;;14.02;;
65665;SDS011;52365;47.464;18.976;2022-11-11T03:35:00;22.13;;;14.07;;
65665;SDS011;52365;47.464;18.976;2022-11-11T03:35:36;20.95;;;13.82;;
65665;SDS011;52365;47.464;18.976;2022-11-11T03:36:12;21.42;;;13.88;;
65665;SDS011;52365;47.464;18.976;2022-11-11T03:36:48;22.40;;;14.38;;
65665;SDS011;52365;47.464;18.976;2022-11-11T03:37:43;21.58;;;14.25;;
65665;SDS011;52365;47.464;18.976;2022-11-11T03:38:38;21.25;;;13.93;;
65665;SDS011;52365;47.464;18.976;2022-11-11T03:39:14;20.65;;;13.75;;
65665;SDS011;52365;47.464;18.976;2022-11-11T03:39:50;21.08;;;14.15;;
65665;SDS011;52365;47.464;18.976;2022-11-11T03:40:26;21.17;;;14.20;;
65665;SDS011;52365;47.464;18.976;2022-11-11T03:41:02;24.12;;;14.23;;
65665;SDS011;52365;47.464;18.976;2022-11-11T03:41:39;20.92;;;13.62;;
65665;SDS011;52365;47.464;18.976;2022-11-11T03:42:15;20.45;;;14.05;;
65665;SDS011;52365;47.464;18.976;2022-11-11T03:42:51;21.55;;;13.98;;
65665;SDS011;52365;47.464;18.976;2022-11-11T03:43:28;21.80;;;13.90;;
65665;SDS011;52365;47.464;18.976;2022-11-11T03:44:06;22.55;;;13.75;;
65665;SDS011;52365;47.464;18.976;2022-11-11T03:44:42;20.62;;;13.57;;
65665;SDS011;52365;47.464;18.976;2022-11-11T03:45:18;21.77;;;13.90;;
65665;SDS011;52365;47.464;18.976;2022-11-11T03:45:55;23.75;;;14.15;;
65665;SDS011;52365;47.464;18.976;2022-11-11T03:46:33;22.40;;;14.20;;
65665;SDS011;52365;47.464;18.976;2022-11-11T03:47:09;21.60;;;13.68;;
65665;SDS011;52365;47.464;18.976;2022-11-11T03:47:45;21.80;;;13.73;;
65665;SDS011;52365;47.464;18.976;2022-11-11T03:48:22;20.65;;;13.35;;
65665;SDS011;52365;47.464;18.976;2022-11-11T03:48:59;20.98;;;13.55;;
65665;SDS011;52365;47.464;18.976;2022-11-11T03:49:35;21.42;;;13.65;;
65665;SDS011;52365;47.464;18.976;2022-11-11T03:50:11;20.52;;;13.80;;
65665;SDS011;52365;47.464;18.976;2022-11-11T03:50:47;21.27;;;13.60;;
65665;SDS011;52365;47.464;18.976;2022-11-11T03:51:23;21.33;;;13.18;;
65665;SDS011;52365;47.464;18.976;2022-11-11T03:51:59;22.45;;;13.38;;
65665;SDS011;52365;47.464;18.976;2022-11-11T03:52:39;21.58;;;13.75;;
65665;SDS011;52365;47.464;18.976;2022-11-11T03:53:16;21.35;;;13.48;;
65665;SDS011;52365;47.464;18.976;2022-11-11T03:53:57;20.55;;;13.40;;
65665;SDS011;52365;47.464;18.976;2022-11-11T03:54:33;20.15;;;13.27;;
65665;SDS011;52365;47.464;18.976;2022-11-11T03:55:09;20.48;;;13.45;;